createdAt,value
2018-05-21T00:05:05.250Z,13.30
2018-05-21T00:10:33.405Z,13.30
2018-05-21T00:16:02.309Z,13.10
2018-05-21T00:21:30.484Z,13.10
2018-05-21T00:26:58.634Z,12.90
2018-05-21T00:32:26.783Z,12.90
2018-05-21T00:37:54.943Z,12.80
2018-05-21T00:43:23.862Z,12.60
2018-05-21T00:48:52.770Z,12.50
2018-05-21T00:54:20.933Z,12.50
2018-05-21T00:59:49.855Z,12.30
2018-05-21T01:05:18.028Z,12.30
2018-05-21T01:10:46.211Z,12.20
2018-05-21T01:16:15.124Z,12.20
2018-05-21T01:21:43.287Z,12.10
2018-05-21T01:27:11.468Z,12.10
2018-05-21T01:32:40.427Z,12.10
2018-05-21T01:38:08.615Z,12.00
2018-05-21T01:43:37.544Z,12.00
2018-05-21T01:49:05.696Z,12.00
2018-05-21T01:54:34.636Z,11.80
2018-05-21T02:00:03.607Z,11.70
2018-05-21T02:05:32.378Z,11.70
2018-05-21T02:11:00.771Z,11.60
2018-05-21T02:16:28.925Z,11.60
2018-05-21T02:21:57.095Z,11.50
2018-05-21T02:27:25.236Z,11.50
2018-05-21T02:32:53.384Z,11.40
2018-05-21T02:38:21.522Z,11.30
2018-05-21T02:43:49.672Z,11.20
2018-05-21T02:49:18.592Z,11.00
2018-05-21T02:54:47.508Z,10.90
2018-05-21T03:00:15.661Z,10.90
2018-05-21T03:05:44.596Z,10.70
2018-05-21T03:11:13.503Z,10.70
2018-05-21T03:16:41.669Z,10.70
2018-05-21T03:22:10.641Z,10.50
2018-05-21T03:27:38.845Z,10.50
2018-05-21T03:33:08.006Z,10.40
2018-05-21T03:38:36.224Z,10.40
2018-05-21T03:44:04.435Z,10.40
2018-05-21T03:49:32.613Z,10.30
2018-05-21T03:55:01.534Z,10.30
2018-05-21T04:06:42.393Z,10.40
2018-05-21T04:12:10.571Z,10.40
2018-05-21T04:17:39.491Z,10.80
2018-05-21T04:23:08.464Z,11.00
2018-05-21T04:28:36.657Z,10.90
2018-05-21T04:34:05.615Z,11.30
2018-05-21T04:39:33.783Z,11.30
2018-05-21T04:45:01.957Z,11.50
2018-05-21T04:50:30.121Z,11.70
2018-05-21T04:55:58.261Z,11.90
2018-05-21T05:01:26.417Z,12.10
2018-05-21T05:06:54.557Z,12.40
2018-05-21T05:12:22.710Z,12.60
2018-05-21T05:17:50.872Z,12.80
2018-05-21T05:23:19.794Z,13.30
2018-05-21T05:28:48.699Z,13.50
2018-05-21T05:34:16.875Z,13.50
2018-05-21T05:39:45.021Z,13.80
2018-05-21T05:45:13.293Z,13.90
2018-05-21T05:50:42.290Z,14.30
2018-05-21T05:56:10.448Z,14.30
2018-05-21T06:01:39.377Z,14.70
2018-05-21T06:07:08.328Z,15.00
2018-05-21T06:12:37.249Z,15.20
2018-05-21T06:18:05.473Z,15.20
2018-05-21T06:23:34.394Z,15.50
2018-05-21T06:29:02.545Z,15.50
2018-05-21T06:34:31.504Z,15.50
2018-05-21T06:40:00.403Z,15.60
2018-05-21T06:45:28.590Z,15.50
2018-05-21T06:50:56.743Z,15.70
2018-05-21T06:56:24.909Z,15.70
2018-05-21T07:01:53.057Z,15.80
2018-05-21T07:07:21.209Z,16.00
2018-05-21T07:12:49.358Z,16.20
2018-05-21T07:18:17.547Z,16.40
2018-05-21T07:23:45.674Z,16.60
2018-05-21T07:29:13.853Z,16.90
2018-05-21T07:34:42.012Z,17.10
2018-05-21T07:40:11.008Z,17.40
2018-05-21T07:45:39.216Z,17.40
2018-05-21T07:51:07.460Z,17.60
2018-05-21T07:56:36.620Z,17.70
2018-05-21T08:02:04.828Z,17.90
2018-05-21T08:07:33.445Z,17.90
2018-05-21T08:13:01.736Z,18.20
2018-05-21T08:18:29.909Z,18.30
2018-05-21T08:23:58.065Z,18.50
2018-05-21T08:29:26.998Z,19.00
2018-05-21T08:34:55.895Z,19.30
2018-05-21T08:40:24.036Z,19.30
2018-05-21T08:45:52.183Z,19.60
2018-05-21T08:51:20.331Z,19.80
2018-05-21T08:56:49.266Z,20.00
2018-05-21T09:02:17.409Z,20.10
2018-05-21T09:07:45.564Z,20.00
2018-05-21T09:13:14.493Z,20.40
2018-05-21T09:18:42.649Z,20.30
2018-05-21T09:24:10.815Z,20.50
2018-05-21T09:29:38.999Z,20.60
2018-05-21T09:35:07.192Z,20.90
2018-05-21T09:40:35.425Z,21.20
2018-05-21T09:46:03.573Z,21.30
2018-05-21T09:51:31.749Z,21.60
2018-05-21T09:57:00.691Z,22.00
2018-05-21T10:02:29.585Z,22.30
2018-05-21T10:07:57.753Z,22.30
2018-05-21T10:13:26.662Z,22.70
2018-05-21T10:18:54.929Z,22.70
2018-05-21T10:24:23.060Z,22.80
2018-05-21T10:29:51.247Z,23.10
2018-05-21T10:35:20.185Z,23.60
2018-05-21T10:40:49.108Z,23.70
2018-05-21T10:46:17.293Z,23.60
2018-05-21T10:51:45.531Z,23.80
2018-05-21T10:57:15.080Z,23.80
2018-05-21T11:02:43.408Z,23.90
2018-05-21T11:08:12.514Z,24.00
2018-05-21T11:13:40.708Z,24.20
2018-05-21T11:19:08.879Z,24.40
2018-05-21T11:24:37.122Z,24.40
2018-05-21T11:30:05.285Z,24.40
2018-05-21T11:35:34.475Z,24.30
2018-05-21T11:41:02.641Z,24.50
2018-05-21T11:46:30.791Z,24.60
2018-05-21T11:51:58.974Z,24.80
2018-05-21T11:57:27.132Z,25.00
2018-05-21T12:02:55.301Z,25.20
2018-05-21T12:08:24.208Z,25.20
2018-05-21T12:13:52.351Z,25.10
2018-05-21T12:19:23.275Z,25.20
2018-05-21T12:24:51.428Z,25.20
2018-05-21T12:30:19.584Z,25.10
2018-05-21T12:35:49.439Z,25.20
2018-05-21T12:41:18.358Z,25.40
2018-05-21T12:46:46.575Z,25.30
2018-05-21T12:52:14.711Z,25.40
2018-05-21T12:57:42.905Z,25.40
2018-05-21T13:03:11.100Z,25.30
2018-05-21T13:08:40.147Z,24.80
2018-05-21T13:14:08.503Z,24.80
2018-05-21T13:19:36.759Z,24.60
2018-05-21T13:25:04.970Z,24.30
2018-05-21T13:30:33.993Z,24.30
2018-05-21T13:36:02.133Z,24.30
2018-05-21T13:41:30.368Z,24.30
2018-05-21T13:46:58.491Z,24.30
2018-05-21T13:52:37.287Z,24.30
2018-05-21T13:58:05.460Z,24.60
2018-05-21T14:03:34.408Z,25.00
2018-05-21T14:09:03.337Z,25.10
2018-05-21T14:14:32.269Z,25.20
2018-05-21T14:20:05.172Z,24.80
2018-05-21T14:25:33.433Z,24.70
2018-05-21T14:31:02.241Z,23.80
2018-05-21T14:36:30.491Z,23.70
2018-05-21T14:41:58.658Z,23.50
2018-05-21T14:47:26.824Z,23.40
2018-05-21T14:52:55.833Z,23.30
2018-05-21T14:58:24.103Z,23.30
2018-05-21T15:03:52.336Z,23.20
2018-05-21T15:09:20.463Z,22.60
2018-05-21T15:14:48.681Z,22.10
2018-05-21T15:20:16.826Z,21.80
2018-05-21T15:25:45.167Z,21.40
2018-05-21T15:31:13.456Z,21.00
2018-05-21T15:36:41.849Z,20.80
2018-05-21T15:42:10.044Z,20.60
2018-05-21T15:47:39.469Z,20.30
2018-05-21T15:53:07.665Z,20.20
2018-05-21T15:58:35.927Z,20.10
2018-05-21T16:04:04.077Z,20.00
2018-05-21T16:09:33.006Z,19.80
2018-05-21T16:15:01.917Z,19.60
2018-05-21T16:20:30.073Z,19.60
2018-05-21T16:25:58.994Z,19.40
2018-05-21T16:31:27.901Z,19.40
2018-05-21T16:36:56.051Z,19.30
2018-05-21T16:42:24.213Z,19.40
2018-05-21T16:47:52.458Z,19.30
2018-05-21T16:53:26.252Z,19.30
2018-05-21T16:58:55.171Z,19.40
2018-05-21T17:04:23.343Z,19.40
2018-05-21T17:09:51.551Z,19.30
2018-05-21T17:15:19.713Z,19.30
2018-05-21T17:20:47.872Z,19.40
2018-05-21T17:26:16.903Z,19.40
2018-05-21T17:31:45.081Z,19.40
2018-05-21T17:37:13.256Z,19.40
2018-05-21T17:42:42.230Z,19.50
2018-05-21T17:48:10.470Z,19.40
2018-05-21T17:53:38.698Z,19.50
2018-05-21T17:59:07.180Z,19.50
2018-05-21T18:04:35.567Z,19.40
2018-05-21T18:10:04.745Z,19.20
2018-05-21T18:15:35.682Z,19.20
2018-05-21T18:21:03.840Z,19.10
2018-05-21T18:26:32.018Z,19.10
2018-05-21T18:32:00.167Z,18.90
2018-05-21T18:37:28.319Z,18.80
2018-05-21T18:42:56.506Z,18.70
2018-05-21T18:48:24.683Z,18.50
2018-05-21T18:53:52.927Z,18.40
2018-05-21T18:59:21.800Z,18.00
2018-05-21T19:04:50.723Z,17.90
2018-05-21T19:10:18.900Z,17.80
2018-05-21T19:15:48.018Z,17.70
2018-05-21T19:21:17.146Z,17.50
2018-05-21T19:26:46.111Z,17.20
2018-05-21T19:32:14.492Z,17.20
2018-05-21T19:37:42.708Z,17.00
2018-05-21T19:43:10.936Z,16.90
2018-05-21T19:48:39.897Z,16.60
2018-05-21T19:54:08.853Z,16.50
2018-05-21T19:59:39.007Z,16.40
2018-05-21T20:05:07.953Z,16.20
2018-05-21T20:10:36.101Z,16.20
2018-05-21T20:16:04.324Z,16.10
2018-05-21T20:21:32.509Z,15.90
2018-05-21T20:27:00.680Z,15.80
2018-05-21T20:32:28.840Z,15.70
2018-05-21T20:37:57.842Z,15.50
2018-05-21T20:43:25.987Z,15.50
2018-05-21T20:48:54.165Z,15.40
2018-05-21T20:54:22.354Z,15.40
2018-05-21T20:59:50.505Z,15.30
2018-05-21T21:05:18.675Z,15.20
2018-05-21T21:10:47.575Z,15.00
2018-05-21T21:16:15.758Z,14.90
2018-05-21T21:21:44.048Z,14.90
2018-05-21T21:27:12.237Z,14.80
2018-05-21T21:32:40.652Z,14.70
2018-05-21T21:38:08.847Z,14.60
2018-05-21T21:43:37.079Z,14.60
2018-05-21T21:49:06.229Z,14.50
2018-05-21T21:54:34.421Z,14.50
2018-05-21T22:00:02.570Z,14.40
2018-05-21T22:05:30.754Z,14.30
2018-05-21T22:10:59.677Z,14.20
2018-05-21T22:16:28.597Z,14.20
2018-05-21T22:21:56.741Z,14.10
2018-05-21T22:27:25.660Z,14.00
2018-05-21T22:32:53.804Z,14.00
2018-05-21T22:38:22.712Z,13.80
2018-05-21T22:43:50.848Z,13.80
2018-05-21T22:49:19.755Z,13.70
2018-05-21T22:54:47.911Z,13.60
2018-05-21T23:00:16.824Z,13.50
2018-05-21T23:05:44.973Z,13.50
2018-05-21T23:11:13.911Z,13.40
2018-05-21T23:16:42.838Z,13.30
2018-05-21T23:22:12.925Z,13.20
2018-05-21T23:27:41.083Z,13.20
2018-05-21T23:33:09.267Z,13.10
2018-05-21T23:38:37.450Z,13.10
2018-05-21T23:44:05.637Z,13.00
2018-05-21T23:49:33.772Z,13.00
2018-05-21T23:55:01.919Z,12.90
